OVO0011 ZWSH-ZWWW
Flight info
| Callsign | OVO0011 |
|---|---|
| Flight time | N/A |
| Altitude | 37100 |
| Route | MAGIV B215 EPDAG |
| Aircraft | A319/M-SDE3FGHIRWY/LB1 |
Departure
| Time | 2026-05-07 12:53 |
|---|---|
| Airport | Kashgar Laining International Airport (ZWSH) |
Arrival
| Time | N/A |
|---|---|
| Airport | Ürümqi Tianshan International Airport (ZWWW) |
| Time | Latitude | Longitude | Altitude | Speed | Heading |
|---|---|---|---|---|---|
| 2026-05-07 12:38 | 39.53756 | 76.01045 | 4522 ft | 0 kts | 176° |
| 2026-05-07 12:44 | 39.53775 | 76.01044 | 4519 ft | 4 kts | 180° |
| 2026-05-07 12:44 | 39.53802 | 76.01046 | 4521 ft | 4 kts | 188° |
| 2026-05-07 12:44 | 39.53828 | 76.01053 | 4521 ft | 4 kts | 201° |
| 2026-05-07 12:45 | 39.53850 | 76.01069 | 4519 ft | 4 kts | 234° |
| 2026-05-07 12:45 | 39.53856 | 76.01085 | 4518 ft | 0 kts | 266° |
| 2026-05-07 12:47 | 39.53856 | 76.01082 | 4519 ft | 1 kts | 266° |
| 2026-05-07 12:47 | 39.53859 | 76.01059 | 4522 ft | 3 kts | 291° |
| 2026-05-07 12:47 | 39.53880 | 76.01037 | 4522 ft | 4 kts | 336° |
| 2026-05-07 12:47 | 39.53913 | 76.01030 | 4522 ft | 5 kts | 355° |
| 2026-05-07 12:48 | 39.53951 | 76.01026 | 4522 ft | 6 kts | 356° |
| 2026-05-07 12:48 | 39.53992 | 76.01010 | 4522 ft | 6 kts | 323° |
| 2026-05-07 12:48 | 39.54004 | 76.00960 | 4522 ft | 6 kts | 270° |
| 2026-05-07 12:48 | 39.54001 | 76.00904 | 4520 ft | 7 kts | 263° |
| 2026-05-07 12:49 | 39.53997 | 76.00843 | 4522 ft | 7 kts | 265° |
| 2026-05-07 12:49 | 39.53993 | 76.00778 | 4522 ft | 8 kts | 266° |
| 2026-05-07 12:49 | 39.53989 | 76.00708 | 4522 ft | 8 kts | 266° |
| 2026-05-07 12:49 | 39.53985 | 76.00635 | 4522 ft | 9 kts | 266° |
| 2026-05-07 12:50 | 39.53981 | 76.00554 | 4521 ft | 9 kts | 266° |
| 2026-05-07 12:50 | 39.53977 | 76.00466 | 4521 ft | 10 kts | 266° |
| 2026-05-07 12:50 | 39.53972 | 76.00372 | 4521 ft | 11 kts | 266° |
| 2026-05-07 12:50 | 39.53967 | 76.00271 | 4521 ft | 12 kts | 266° |
| 2026-05-07 12:51 | 39.53979 | 76.00180 | 4520 ft | 8 kts | 314° |
| 2026-05-07 12:51 | 39.54037 | 76.00165 | 4521 ft | 9 kts | 356° |
| 2026-05-07 12:51 | 39.54100 | 76.00161 | 4522 ft | 9 kts | 4° |
| 2026-05-07 12:51 | 39.54142 | 76.00217 | 4522 ft | 10 kts | 73° |
| 2026-05-07 12:52 | 39.54151 | 76.00331 | 4522 ft | 23 kts | 85° |
| 2026-05-07 12:52 | 39.54175 | 76.00746 | 4519 ft | 70 kts | 86° |
| 2026-05-07 12:52 | 39.54219 | 76.01605 | 4522 ft | 120 kts | 85° |
| 2026-05-07 12:52 | 39.54285 | 76.02899 | 4538 ft | 165 kts | 87° |
| 2026-05-07 12:53 | 39.54330 | 76.04320 | 5265 ft | 150 kts | 88° |
| 2026-05-07 12:53 | 39.54390 | 76.05677 | 5942 ft | 152 kts | 89° |
| 2026-05-07 12:53 | 39.54466 | 76.07058 | 6387 ft | 159 kts | 89° |
| 2026-05-07 12:53 | 39.54545 | 76.08585 | 6603 ft | 181 kts | 89° |
| 2026-05-07 12:54 | 39.54635 | 76.10315 | 6793 ft | 204 kts | 89° |
| 2026-05-07 12:54 | 39.54706 | 76.12259 | 7011 ft | 227 kts | 96° |
| 2026-05-07 12:54 | 39.54100 | 76.14202 | 7294 ft | 248 kts | 130° |
| 2026-05-07 12:54 | 39.52785 | 76.15791 | 7690 ft | 269 kts | 144° |
| 2026-05-07 12:55 | 39.51227 | 76.17218 | 8396 ft | 278 kts | 147° |
| 2026-05-07 12:55 | 39.49609 | 76.18634 | 9171 ft | 284 kts | 147° |
| 2026-05-07 12:55 | 39.47977 | 76.20111 | 9999 ft | 289 kts | 145° |
| 2026-05-07 12:55 | 39.46346 | 76.21668 | 10779 ft | 294 kts | 143° |
| 2026-05-07 12:56 | 39.44713 | 76.23292 | 11537 ft | 299 kts | 142° |
| 2026-05-07 12:56 | 39.43063 | 76.24980 | 12273 ft | 305 kts | 141° |
| 2026-05-07 12:56 | 39.41394 | 76.26718 | 13021 ft | 311 kts | 141° |
| 2026-05-07 12:56 | 39.39694 | 76.28500 | 13750 ft | 318 kts | 141° |
| 2026-05-07 12:57 | 39.37993 | 76.30287 | 14454 ft | 321 kts | 141° |
| 2026-05-07 12:57 | 39.36243 | 76.32122 | 15127 ft | 326 kts | 141° |
| 2026-05-07 12:57 | 39.34467 | 76.33974 | 15824 ft | 331 kts | 141° |
| 2026-05-07 12:57 | 39.32748 | 76.35974 | 16515 ft | 336 kts | 132° |
| 2026-05-07 12:58 | 39.31182 | 76.38335 | 16686 ft | 358 kts | 129° |
| 2026-05-07 12:58 | 39.29542 | 76.40876 | 16817 ft | 379 kts | 129° |
| 2026-05-07 12:58 | 39.27824 | 76.43558 | 17040 ft | 395 kts | 129° |
| 2026-05-07 12:58 | 39.26056 | 76.46316 | 17554 ft | 402 kts | 129° |
| 2026-05-07 12:59 | 39.24263 | 76.49100 | 18191 ft | 405 kts | 129° |
| 2026-05-07 12:59 | 39.22447 | 76.51908 | 18763 ft | 409 kts | 130° |
| 2026-05-07 12:59 | 39.20614 | 76.54731 | 19355 ft | 412 kts | 129° |
| 2026-05-07 12:59 | 39.18765 | 76.57568 | 19947 ft | 415 kts | 129° |
| 2026-05-07 13:00 | 39.16902 | 76.60422 | 20541 ft | 417 kts | 129° |
| 2026-05-07 13:00 | 39.15030 | 76.63293 | 21086 ft | 420 kts | 129° |
| 2026-05-07 13:00 | 39.13145 | 76.66188 | 21609 ft | 423 kts | 129° |
| 2026-05-07 13:00 | 39.11248 | 76.69098 | 22137 ft | 426 kts | 129° |
| 2026-05-07 13:01 | 39.09336 | 76.72024 | 22651 ft | 428 kts | 129° |
| 2026-05-07 13:01 | 39.07412 | 76.74968 | 23146 ft | 431 kts | 129° |
| 2026-05-07 13:01 | 39.05478 | 76.77930 | 23636 ft | 434 kts | 128° |
| 2026-05-07 13:01 | 39.03531 | 76.80910 | 24039 ft | 436 kts | 128° |
| 2026-05-07 13:02 | 39.01571 | 76.83908 | 24423 ft | 439 kts | 128° |
| 2026-05-07 13:02 | 38.99595 | 76.86921 | 24805 ft | 443 kts | 128° |
| 2026-05-07 13:02 | 38.97602 | 76.89954 | 25180 ft | 446 kts | 128° |
| 2026-05-07 13:02 | 38.95596 | 76.93006 | 25556 ft | 449 kts | 128° |
| 2026-05-07 13:03 | 38.93573 | 76.96081 | 25921 ft | 452 kts | 128° |
| 2026-05-07 13:03 | 38.91535 | 76.99173 | 26296 ft | 455 kts | 128° |
| 2026-05-07 13:03 | 38.89485 | 77.02284 | 26666 ft | 458 kts | 128° |
| 2026-05-07 13:03 | 38.87422 | 77.05415 | 27036 ft | 461 kts | 128° |
| 2026-05-07 13:04 | 38.85373 | 77.08520 | 27364 ft | 464 kts | 128° |
| 2026-05-07 13:04 | 38.83281 | 77.11683 | 27717 ft | 466 kts | 127° |
| 2026-05-07 13:04 | 38.81174 | 77.14861 | 28060 ft | 469 kts | 127° |
| 2026-05-07 13:04 | 38.79054 | 77.18057 | 28400 ft | 472 kts | 127° |
| 2026-05-07 13:05 | 38.76920 | 77.21272 | 28720 ft | 475 kts | 127° |
| 2026-05-07 13:05 | 38.74775 | 77.24499 | 29057 ft | 477 kts | 127° |
| 2026-05-07 13:05 | 38.72616 | 77.27745 | 29380 ft | 480 kts | 127° |
| 2026-05-07 13:05 | 38.70447 | 77.31003 | 29693 ft | 482 kts | 127° |
| 2026-05-07 13:06 | 38.68265 | 77.34279 | 30016 ft | 484 kts | 127° |
| 2026-05-07 13:06 | 38.66082 | 77.37558 | 30406 ft | 484 kts | 127° |
| 2026-05-07 13:06 | 38.64050 | 77.40954 | 30814 ft | 477 kts | 117° |
| 2026-05-07 13:06 | 38.62656 | 77.44754 | 31224 ft | 468 kts | 104° |
| 2026-05-07 13:07 | 38.61991 | 77.48779 | 31629 ft | 459 kts | 90° |
| 2026-05-07 13:07 | 38.62042 | 77.52817 | 32035 ft | 451 kts | 78° |
| 2026-05-07 13:07 | 38.62764 | 77.56677 | 32460 ft | 443 kts | 66° |
| 2026-05-07 13:07 | 38.64094 | 77.60190 | 32916 ft | 436 kts | 54° |
| 2026-05-07 13:08 | 38.65882 | 77.63300 | 33333 ft | 433 kts | 49° |
| 2026-05-07 13:08 | 38.67719 | 77.66347 | 33818 ft | 432 kts | 49° |
| 2026-05-07 13:08 | 38.69519 | 77.69349 | 34226 ft | 430 kts | 50° |
| 2026-05-07 13:08 | 38.71333 | 77.72393 | 34599 ft | 430 kts | 50° |
| 2026-05-07 13:09 | 38.73144 | 77.75443 | 34936 ft | 431 kts | 50° |
| 2026-05-07 13:09 | 38.74958 | 77.78501 | 35253 ft | 432 kts | 50° |
| 2026-05-07 13:09 | 38.76779 | 77.81568 | 35559 ft | 433 kts | 50° |
| 2026-05-07 13:09 | 38.78604 | 77.84637 | 35878 ft | 434 kts | 50° |
| 2026-05-07 13:10 | 38.80435 | 77.87712 | 36180 ft | 434 kts | 49° |
| 2026-05-07 13:10 | 38.82271 | 77.90796 | 36490 ft | 435 kts | 49° |
| 2026-05-07 13:10 | 38.84108 | 77.93886 | 36789 ft | 436 kts | 49° |
| 2026-05-07 13:10 | 38.85949 | 77.96982 | 37048 ft | 438 kts | 49° |
| 2026-05-07 13:11 | 38.89628 | 78.03190 | 37105 ft | 436 kts | 50° |
| 2026-05-07 13:11 | 38.93288 | 78.09390 | 37105 ft | 436 kts | 50° |
| 2026-05-07 13:12 | 38.96946 | 78.15597 | 37099 ft | 436 kts | 50° |
| 2026-05-07 13:12 | 39.00602 | 78.21803 | 37102 ft | 435 kts | 50° |
| 2026-05-07 13:13 | 39.04251 | 78.28021 | 37099 ft | 435 kts | 50° |
| 2026-05-07 13:13 | 39.07901 | 78.34243 | 37099 ft | 435 kts | 50° |
| 2026-05-07 13:14 | 39.11550 | 78.40466 | 37093 ft | 435 kts | 50° |
| 2026-05-07 13:14 | 39.15194 | 78.46695 | 37093 ft | 435 kts | 50° |
| 2026-05-07 13:15 | 39.18832 | 78.52933 | 37090 ft | 435 kts | 50° |
| 2026-05-07 13:15 | 39.22465 | 78.59181 | 37087 ft | 435 kts | 50° |
| 2026-05-07 13:16 | 39.26096 | 78.65435 | 37088 ft | 435 kts | 50° |
| 2026-05-07 13:16 | 39.29726 | 78.71695 | 37091 ft | 436 kts | 50° |
| 2026-05-07 13:17 | 39.33352 | 78.77961 | 37088 ft | 436 kts | 50° |
| 2026-05-07 13:17 | 39.36957 | 78.84190 | 37076 ft | 436 kts | 50° |
| 2026-05-07 13:18 | 39.40573 | 78.90477 | 37077 ft | 436 kts | 50° |
| 2026-05-07 13:18 | 39.44185 | 78.96772 | 37077 ft | 436 kts | 50° |
| 2026-05-07 13:19 | 39.47801 | 79.03068 | 37062 ft | 436 kts | 50° |
| 2026-05-07 13:19 | 39.51410 | 79.09373 | 37076 ft | 436 kts | 50° |
| 2026-05-07 13:20 | 39.55019 | 79.15679 | 37071 ft | 436 kts | 50° |
| 2026-05-07 13:20 | 39.58625 | 79.21992 | 37067 ft | 436 kts | 50° |
| 2026-05-07 13:21 | 39.62229 | 79.28307 | 37077 ft | 436 kts | 50° |
| 2026-05-07 13:21 | 39.65824 | 79.34631 | 37072 ft | 436 kts | 50° |
| 2026-05-07 13:22 | 39.69417 | 79.40963 | 37072 ft | 436 kts | 51° |
| 2026-05-07 13:22 | 39.73012 | 79.47312 | 37083 ft | 436 kts | 51° |
| 2026-05-07 13:23 | 39.76606 | 79.53665 | 37081 ft | 436 kts | 51° |
| 2026-05-07 13:23 | 39.80189 | 79.60031 | 37081 ft | 436 kts | 51° |
| 2026-05-07 13:24 | 39.83767 | 79.66397 | 37080 ft | 436 kts | 51° |
| 2026-05-07 13:24 | 39.86741 | 79.71682 | 37079 ft | 435 kts | 51° |
| 2026-05-07 13:25 | 39.90314 | 79.78048 | 37077 ft | 435 kts | 51° |
| 2026-05-07 13:25 | 39.93884 | 79.84420 | 37080 ft | 436 kts | 51° |
| 2026-05-07 13:26 | 39.97457 | 79.90803 | 37076 ft | 436 kts | 51° |
| 2026-05-07 13:26 | 40.01019 | 79.97209 | 37073 ft | 436 kts | 51° |
| 2026-05-07 13:27 | 40.04580 | 80.03621 | 37073 ft | 437 kts | 51° |
| 2026-05-07 13:27 | 40.08146 | 80.10039 | 37076 ft | 437 kts | 51° |
| 2026-05-07 13:28 | 40.11694 | 80.16474 | 37079 ft | 436 kts | 52° |
| 2026-05-07 13:28 | 40.15293 | 80.22855 | 37085 ft | 436 kts | 50° |
| 2026-05-07 13:29 | 40.18978 | 80.29138 | 37078 ft | 435 kts | 50° |
| 2026-05-07 13:29 | 40.22661 | 80.35426 | 37072 ft | 435 kts | 50° |
| 2026-05-07 13:30 | 40.26316 | 80.41745 | 37072 ft | 435 kts | 51° |
| 2026-05-07 13:30 | 40.29955 | 80.48080 | 37069 ft | 435 kts | 51° |
| 2026-05-07 13:31 | 40.33589 | 80.54425 | 37081 ft | 435 kts | 51° |
| 2026-05-07 13:31 | 40.37226 | 80.60767 | 37070 ft | 435 kts | 51° |
| 2026-05-07 13:32 | 40.40860 | 80.67115 | 37074 ft | 435 kts | 51° |
| 2026-05-07 13:32 | 40.44496 | 80.73471 | 37069 ft | 435 kts | 51° |
| 2026-05-07 13:33 | 40.48121 | 80.79845 | 37070 ft | 435 kts | 51° |
| 2026-05-07 13:33 | 40.51745 | 80.86222 | 37073 ft | 435 kts | 51° |
| 2026-05-07 13:34 | 40.57185 | 80.95791 | 37073 ft | 436 kts | 52° |
| 2026-05-07 13:35 | 40.60799 | 81.02197 | 37073 ft | 436 kts | 52° |
| 2026-05-07 13:35 | 40.64421 | 81.08606 | 37071 ft | 436 kts | 52° |
| 2026-05-07 13:36 | 40.68016 | 81.14986 | 37074 ft | 437 kts | 52° |
| 2026-05-07 13:36 | 40.71632 | 81.21419 | 37077 ft | 437 kts | 52° |
| 2026-05-07 13:37 | 40.75245 | 81.27869 | 37082 ft | 437 kts | 52° |
| 2026-05-07 13:37 | 40.78858 | 81.34321 | 37093 ft | 437 kts | 52° |
| 2026-05-07 13:38 | 40.82471 | 81.40779 | 37088 ft | 437 kts | 52° |
| 2026-05-07 13:38 | 40.86076 | 81.47242 | 37083 ft | 437 kts | 52° |
| 2026-05-07 13:39 | 40.89697 | 81.53754 | 37082 ft | 437 kts | 52° |
| 2026-05-07 13:39 | 40.93291 | 81.60232 | 37081 ft | 437 kts | 52° |
| 2026-05-07 13:40 | 40.96888 | 81.66709 | 37086 ft | 437 kts | 52° |
| 2026-05-07 13:40 | 41.00602 | 81.73004 | 37083 ft | 437 kts | 49° |
| 2026-05-07 13:41 | 41.04458 | 81.79214 | 37083 ft | 437 kts | 49° |
| 2026-05-07 13:41 | 41.08309 | 81.85437 | 37087 ft | 437 kts | 49° |
| 2026-05-07 13:42 | 41.12122 | 81.91709 | 37087 ft | 437 kts | 50° |
| 2026-05-07 13:42 | 41.15921 | 81.97994 | 37089 ft | 437 kts | 50° |
| 2026-05-07 13:43 | 41.19717 | 82.04290 | 37089 ft | 437 kts | 50° |
| 2026-05-07 13:43 | 41.23518 | 82.10582 | 37092 ft | 437 kts | 50° |
| 2026-05-07 13:44 | 41.27307 | 82.16891 | 37087 ft | 437 kts | 50° |
| 2026-05-07 13:44 | 41.31093 | 82.23209 | 37091 ft | 437 kts | 50° |
| 2026-05-07 13:45 | 41.34906 | 82.29498 | 37099 ft | 437 kts | 49° |
| 2026-05-07 13:45 | 41.38719 | 82.35790 | 37097 ft | 437 kts | 50° |
| 2026-05-07 13:46 | 41.42505 | 82.42113 | 37111 ft | 437 kts | 50° |
| 2026-05-07 13:46 | 41.46286 | 82.48450 | 37108 ft | 437 kts | 50° |
| 2026-05-07 13:47 | 41.50076 | 82.54779 | 37107 ft | 437 kts | 50° |
| 2026-05-07 13:47 | 41.53868 | 82.61114 | 37110 ft | 437 kts | 50° |
| 2026-05-07 13:48 | 41.57656 | 82.67454 | 37112 ft | 436 kts | 49° |
| 2026-05-07 13:48 | 41.61429 | 82.73802 | 37120 ft | 436 kts | 50° |
| 2026-05-07 13:49 | 41.65195 | 82.80160 | 37133 ft | 436 kts | 50° |
| 2026-05-07 13:49 | 41.68781 | 82.86708 | 37126 ft | 438 kts | 56° |
| 2026-05-07 13:50 | 41.72013 | 82.93628 | 37120 ft | 439 kts | 56° |
| 2026-05-07 13:50 | 41.75264 | 83.00538 | 37126 ft | 439 kts | 56° |
| 2026-05-07 13:51 | 41.78512 | 83.07462 | 37130 ft | 439 kts | 56° |
| 2026-05-07 13:51 | 41.81742 | 83.14402 | 37137 ft | 439 kts | 56° |
| 2026-05-07 13:52 | 41.84964 | 83.21344 | 37156 ft | 438 kts | 56° |
| 2026-05-07 13:52 | 41.88183 | 83.28293 | 37151 ft | 439 kts | 56° |
| 2026-05-07 13:53 | 41.91402 | 83.35249 | 37158 ft | 439 kts | 56° |
| 2026-05-07 13:53 | 41.94616 | 83.42214 | 37175 ft | 439 kts | 56° |
| 2026-05-07 13:54 | 41.97824 | 83.49183 | 37175 ft | 439 kts | 56° |
| 2026-05-07 13:54 | 42.01027 | 83.56161 | 37182 ft | 439 kts | 56° |
| 2026-05-07 13:55 | 42.04230 | 83.63146 | 37215 ft | 438 kts | 56° |
| 2026-05-07 13:55 | 42.07423 | 83.70130 | 37214 ft | 438 kts | 56° |
| 2026-05-07 13:56 | 42.10603 | 83.77116 | 37215 ft | 437 kts | 56° |
| 2026-05-07 13:56 | 42.13786 | 83.84097 | 37240 ft | 437 kts | 56° |
| 2026-05-07 13:57 | 42.16961 | 83.91080 | 37240 ft | 437 kts | 56° |
| 2026-05-07 13:57 | 42.20125 | 83.98076 | 37232 ft | 437 kts | 56° |
| 2026-05-07 13:58 | 42.23374 | 84.05000 | 37255 ft | 437 kts | 53° |
| 2026-05-07 13:58 | 42.26850 | 84.11721 | 37248 ft | 436 kts | 52° |
| 2026-05-07 13:59 | 42.30324 | 84.18361 | 37278 ft | 436 kts | 52° |
| 2026-05-07 13:59 | 42.33765 | 84.25104 | 37279 ft | 436 kts | 53° |
| 2026-05-07 14:00 | 42.37170 | 84.31883 | 37282 ft | 435 kts | 53° |
| 2026-05-07 14:00 | 42.40567 | 84.38661 | 37304 ft | 435 kts | 53° |
| 2026-05-07 14:01 | 42.43969 | 84.45433 | 37315 ft | 434 kts | 53° |
| 2026-05-07 14:01 | 42.47366 | 84.52195 | 37306 ft | 434 kts | 53° |
| 2026-05-07 14:02 | 42.50752 | 84.58962 | 37313 ft | 433 kts | 53° |
| 2026-05-07 14:02 | 42.54127 | 84.65718 | 37315 ft | 432 kts | 53° |
| 2026-05-07 14:03 | 42.57490 | 84.72470 | 37321 ft | 432 kts | 53° |
| 2026-05-07 14:03 | 42.60846 | 84.79223 | 37311 ft | 432 kts | 53° |
| 2026-05-07 14:04 | 42.64197 | 84.85981 | 37320 ft | 432 kts | 53° |
| 2026-05-07 14:04 | 42.67548 | 84.92748 | 37301 ft | 431 kts | 53° |
| 2026-05-07 14:05 | 42.70892 | 84.99525 | 37315 ft | 432 kts | 53° |
| 2026-05-07 14:05 | 42.74226 | 85.06305 | 37334 ft | 431 kts | 53° |
| 2026-05-07 14:06 | 42.77105 | 85.12161 | 37314 ft | 430 kts | 54° |
| 2026-05-07 14:06 | 42.80427 | 85.18939 | 37309 ft | 430 kts | 54° |
| 2026-05-07 14:07 | 42.83745 | 85.25725 | 37300 ft | 430 kts | 54° |
| 2026-05-07 14:07 | 42.87058 | 85.32516 | 37285 ft | 430 kts | 54° |
| 2026-05-07 14:08 | 42.90372 | 85.39311 | 37287 ft | 430 kts | 54° |
| 2026-05-07 14:08 | 42.93662 | 85.46076 | 37045 ft | 432 kts | 54° |
| 2026-05-07 14:08 | 42.95320 | 85.49493 | 36768 ft | 432 kts | 54° |
| 2026-05-07 14:09 | 42.96979 | 85.52914 | 36517 ft | 432 kts | 54° |
| 2026-05-07 14:09 | 42.98634 | 85.56335 | 36257 ft | 432 kts | 54° |
| 2026-05-07 14:09 | 43.00288 | 85.59757 | 36009 ft | 432 kts | 54° |
| 2026-05-07 14:09 | 43.01939 | 85.63179 | 35754 ft | 432 kts | 54° |
| 2026-05-07 14:10 | 43.03591 | 85.66601 | 35287 ft | 432 kts | 54° |
| 2026-05-07 14:10 | 43.05259 | 85.70058 | 34173 ft | 439 kts | 55° |
| 2026-05-07 14:10 | 43.06947 | 85.73566 | 32910 ft | 443 kts | 55° |
| 2026-05-07 14:10 | 43.08644 | 85.77105 | 31707 ft | 447 kts | 55° |
| 2026-05-07 14:11 | 43.10354 | 85.80674 | 30539 ft | 450 kts | 55° |
| 2026-05-07 14:11 | 43.12072 | 85.84265 | 29246 ft | 452 kts | 55° |
| 2026-05-07 14:11 | 43.13799 | 85.87870 | 27956 ft | 453 kts | 55° |
| 2026-05-07 14:11 | 43.15540 | 85.91502 | 26721 ft | 459 kts | 55° |
| 2026-05-07 14:12 | 43.17295 | 85.95170 | 25529 ft | 462 kts | 55° |
| 2026-05-07 14:12 | 43.19062 | 85.98866 | 24439 ft | 464 kts | 55° |
| 2026-05-07 14:12 | 43.20824 | 86.02539 | 23662 ft | 458 kts | 55° |
| 2026-05-07 14:12 | 43.22569 | 86.06157 | 22841 ft | 451 kts | 55° |
| 2026-05-07 14:13 | 43.24290 | 86.09715 | 22107 ft | 444 kts | 55° |
| 2026-05-07 14:13 | 43.25985 | 86.13216 | 21370 ft | 437 kts | 55° |
| 2026-05-07 14:13 | 43.27655 | 86.16667 | 20651 ft | 431 kts | 55° |
| 2026-05-07 14:13 | 43.29226 | 86.20143 | 19964 ft | 426 kts | 61° |
| 2026-05-07 14:14 | 43.30392 | 86.23868 | 19572 ft | 426 kts | 69° |
| 2026-05-07 14:14 | 43.31452 | 86.27671 | 19333 ft | 427 kts | 68° |
| 2026-05-07 14:14 | 43.32529 | 86.31473 | 19100 ft | 426 kts | 68° |
| 2026-05-07 14:14 | 43.33610 | 86.35261 | 18865 ft | 426 kts | 68° |
| 2026-05-07 14:15 | 43.34693 | 86.39046 | 18633 ft | 425 kts | 68° |
| 2026-05-07 14:15 | 43.35770 | 86.42823 | 18380 ft | 424 kts | 68° |
| 2026-05-07 14:15 | 43.36841 | 86.46594 | 18117 ft | 423 kts | 68° |
| 2026-05-07 14:15 | 43.37905 | 86.50350 | 17835 ft | 421 kts | 68° |
| 2026-05-07 14:16 | 43.38960 | 86.54092 | 17581 ft | 419 kts | 68° |
| 2026-05-07 14:16 | 43.40005 | 86.57819 | 17317 ft | 417 kts | 68° |
| 2026-05-07 14:16 | 43.41040 | 86.61520 | 17061 ft | 413 kts | 68° |
| 2026-05-07 14:16 | 43.42066 | 86.65200 | 16790 ft | 411 kts | 69° |
| 2026-05-07 14:17 | 43.43187 | 86.68803 | 16538 ft | 409 kts | 62° |
| 2026-05-07 14:17 | 43.44669 | 86.72132 | 16290 ft | 407 kts | 56° |
| 2026-05-07 14:17 | 43.46238 | 86.75367 | 16041 ft | 406 kts | 56° |
| 2026-05-07 14:17 | 43.47800 | 86.78592 | 15778 ft | 404 kts | 56° |
| 2026-05-07 14:18 | 43.49358 | 86.81814 | 15521 ft | 403 kts | 56° |
| 2026-05-07 14:18 | 43.50909 | 86.85028 | 15278 ft | 402 kts | 56° |
| 2026-05-07 14:18 | 43.52457 | 86.88238 | 14987 ft | 402 kts | 56° |
| 2026-05-07 14:18 | 43.53996 | 86.91436 | 14629 ft | 400 kts | 57° |
| 2026-05-07 14:19 | 43.55522 | 86.94624 | 14275 ft | 398 kts | 57° |
| 2026-05-07 14:19 | 43.57019 | 86.97764 | 13938 ft | 395 kts | 57° |
| 2026-05-07 14:19 | 43.58520 | 87.00924 | 13575 ft | 393 kts | 57° |
| 2026-05-07 14:19 | 43.60010 | 87.04071 | 13245 ft | 391 kts | 56° |
| 2026-05-07 14:20 | 43.61487 | 87.07210 | 12918 ft | 390 kts | 58° |
| 2026-05-07 14:20 | 43.62685 | 87.10548 | 12575 ft | 387 kts | 69° |
| 2026-05-07 14:20 | 43.63496 | 87.14085 | 12247 ft | 386 kts | 73° |
| 2026-05-07 14:20 | 43.64264 | 87.17628 | 11863 ft | 384 kts | 73° |
| 2026-05-07 14:21 | 43.65029 | 87.21146 | 11541 ft | 381 kts | 74° |
| 2026-05-07 14:21 | 43.65790 | 87.24644 | 11218 ft | 379 kts | 74° |
| 2026-05-07 14:21 | 43.66540 | 87.28089 | 10939 ft | 367 kts | 74° |
| 2026-05-07 14:21 | 43.67255 | 87.31375 | 10821 ft | 348 kts | 74° |
| 2026-05-07 14:22 | 43.67934 | 87.34501 | 10698 ft | 332 kts | 74° |
| 2026-05-07 14:22 | 43.68582 | 87.37490 | 10576 ft | 318 kts | 74° |
| 2026-05-07 14:22 | 43.69202 | 87.40358 | 10429 ft | 306 kts | 74° |
| 2026-05-07 14:22 | 43.69803 | 87.43141 | 10262 ft | 298 kts | 74° |
| 2026-05-07 14:23 | 43.70554 | 87.45759 | 10114 ft | 291 kts | 58° |
| 2026-05-07 14:23 | 43.71975 | 87.47675 | 9944 ft | 286 kts | 31° |
| 2026-05-07 14:23 | 43.73848 | 87.48494 | 9663 ft | 283 kts | 3° |
| 2026-05-07 14:23 | 43.75770 | 87.48094 | 9410 ft | 279 kts | 340° |
| 2026-05-07 14:24 | 43.77424 | 87.46770 | 9168 ft | 274 kts | 316° |
| 2026-05-07 14:24 | 43.78523 | 87.44672 | 8925 ft | 269 kts | 291° |
| 2026-05-07 14:24 | 43.78849 | 87.42179 | 8723 ft | 263 kts | 265° |
| 2026-05-07 14:24 | 43.78464 | 87.39742 | 8532 ft | 258 kts | 252° |